Terminal Aerodrome Forecast
Issued by NWS Mt. Holly, NJ

Home | Current Version | Previous Version | Text Only | Print | Product List | Glossary On
Versions: 1 2 3 4 5 6 7 8 9 10 11 12 13 14 15 16 17 18
510
FTUS41 KPHI 261120
TAFABE
TAF
KABE 261120Z 2612/2712 06008KT P6SM OVC020
     FM261600 08010KT 6SM BR OVC010
     FM262200 09012KT 3SM -DZ BR OVC006
     FM270000 09005KT 2SM -SHRA BR OVC004=

USA.gov is the U.S. government's official web portal to all federal, state and local government web resources and services.